Time;durP1;ratioP1;P1;durP2;ratioP2;P2;SDS_P1;SDS_P2;PMS_P1;PMS_P2;Temp;Humidity;BMP_temperature;BMP_pressure;BME280_temperature;BME280_humidity;BME280_pressure;Samples;Min_cycle;Max_cycle;Signal;HPM_P1;HPM_P2
2023/05/02 00:02:15;;;;;;;32.60;20.33;;;11.80;99.90;;;;;;5086757;28;20054;-68
2023/05/02 00:04:40;;;;;;;31.00;17.60;;;11.80;99.90;;;;;;5078240;28;20050;-68
2023/05/02 00:07:06;;;;;;;30.73;18.58;;;11.80;99.90;;;;;;5078194;28;20110;-68
2023/05/02 00:09:32;;;;;;;32.65;19.33;;;11.80;99.90;;;;;;5086517;28;20051;-69
2023/05/02 00:11:58;;;;;;;34.10;17.23;;;11.70;99.90;;;;;;5089119;28;20050;-69
2023/05/02 00:14:24;;;;;;;33.58;20.25;;;11.70;99.90;;;;;;5089579;28;20051;-69
2023/05/02 00:16:50;;;;;;;35.22;18.92;;;11.70;99.90;;;;;;5073453;28;20059;-68
2023/05/02 00:19:15;;;;;;;27.30;17.95;;;11.70;99.90;;;;;;5082109;28;20040;-68
2023/05/02 00:21:41;;;;;;;22.98;14.48;;;11.70;99.90;;;;;;5076628;28;20043;-68
2023/05/02 00:24:07;;;;;;;30.63;15.95;;;11.60;99.90;;;;;;5089425;28;20040;-68
2023/05/02 00:26:32;;;;;;;31.23;16.10;;;11.50;99.90;;;;;;5088170;28;20071;-68
2023/05/02 00:28:58;;;;;;;31.83;15.52;;;11.50;99.90;;;;;;5085359;28;20859;-68
2023/05/02 00:31:24;;;;;;;24.83;14.68;;;11.50;99.90;;;;;;5074034;28;20054;-69
2023/05/02 00:33:49;;;;;;;22.35;12.05;;;11.50;99.90;;;;;;5086105;28;20040;-68
2023/05/02 00:36:19;;;;;;;18.55;11.13;;;11.50;99.90;;;;;;5076780;28;20044;-68
2023/05/02 00:38:44;;;;;;;26.27;11.88;;;11.40;99.90;;;;;;5082300;28;20039;-68
2023/05/02 00:41:10;;;;;;;11.55;8.20;;;11.40;99.90;;;;;;5087212;28;20040;-68
2023/05/02 00:43:38;;;;;;;10.77;6.32;;;11.30;99.90;;;;;;5089407;28;20041;-68
2023/05/02 00:46:05;;;;;;;15.68;8.98;;;11.30;99.90;;;;;;5088484;28;20062;-67
2023/05/02 00:48:31;;;;;;;15.18;8.57;;;11.20;99.90;;;;;;5084820;28;20056;-67
2023/05/02 00:50:57;;;;;;;15.32;7.78;;;11.20;99.90;;;;;;5080137;28;20040;-68
2023/05/02 00:53:23;;;;;;;7.68;6.03;;;11.20;99.90;;;;;;5088646;28;20448;-68
2023/05/02 00:55:49;;;;;;;8.95;7.28;;;11.20;99.90;;;;;;5084774;28;20065;-68
2023/05/02 00:58:17;;;;;;;9.38;6.68;;;11.10;99.90;;;;;;5082952;28;20051;-68
2023/05/02 01:01:06;;;;;;;11.80;6.82;;;11.10;99.90;;;;;;5089479;28;20553;-68
2023/05/02 01:03:52;;;;;;;10.88;6.60;;;11.10;99.90;;;;;;5087931;28;20040;-69
2023/05/02 01:06:51;;;;;;;13.85;7.00;;;11.10;99.90;;;;;;5080746;28;20036;-69
2023/05/02 01:09:47;;;;;;;14.45;8.00;;;11.00;99.90;;;;;;5056749;28;20061;-69
2023/05/02 01:12:30;;;;;;;18.98;8.00;;;10.90;99.90;;;;;;5079346;28;20433;-70
2023/05/02 01:14:58;;;;;;;16.65;7.57;;;10.90;99.90;;;;;;5083633;28;20059;-69
2023/05/02 01:17:31;;;;;;;15.52;7.53;;;10.80;99.90;;;;;;5078040;28;20051;-69
2023/05/02 01:20:04;;;;;;;14.43;8.18;;;10.80;99.90;;;;;;5089396;28;20040;-69
2023/05/02 01:22:31;;;;;;;9.90;6.88;;;10.70;99.90;;;;;;5079474;28;20850;-69
2023/05/02 01:25:29;;;;;;;15.38;7.95;;;10.60;99.90;;;;;;5075787;28;20076;-70
2023/05/02 01:28:27;;;;;;;15.32;8.38;;;10.70;99.90;;;;;;5070382;28;20056;-69
2023/05/02 01:30:55;;;;;;;;;;;10.70;99.90;;;;;;5081305;28;20048;-70
2023/05/02 01:33:23;;;;;;;19.45;9.23;;;10.70;99.90;;;;;;5112607;27;19924;-69
2023/05/02 01:35:51;;;;;;;10.73;7.53;;;10.70;99.90;;;;;;5087263;28;20040;-70
2023/05/02 01:38:18;;;;;;;12.43;7.32;;;10.70;99.90;;;;;;5088659;28;20393;-70
2023/05/02 01:40:45;;;;;;;13.20;7.15;;;10.70;99.90;;;;;;5082178;28;20244;-70
2023/05/02 01:43:15;;;;;;;23.33;8.83;;;10.70;99.90;;;;;;5085810;28;20095;-69
2023/05/02 01:45:44;;;;;;;9.38;6.07;;;10.70;99.90;;;;;;5083881;28;20040;-69
2023/05/02 01:48:12;;;;;;;17.13;7.35;;;10.70;99.90;;;;;;5087305;28;20050;-70
2023/05/02 01:50:40;;;;;;;11.55;7.18;;;10.70;99.90;;;;;;5083609;28;20051;-69
2023/05/02 01:53:07;;;;;;;17.02;7.78;;;10.70;99.90;;;;;;5085944;28;20051;-70
2023/05/02 01:55:37;;;;;;;13.20;7.20;;;10.70;99.90;;;;;;5087103;28;20864;-70
2023/05/02 01:58:04;;;;;;;13.40;6.70;;;10.70;99.90;;;;;;5056953;28;20413;-69
2023/05/02 02:00:32;;;;;;;14.48;7.68;;;10.70;99.90;;;;;;5077609;28;20093;-69
2023/05/02 02:02:58;;;;;;;9.60;6.72;;;10.70;99.90;;;;;;5088320;28;20085;-70
2023/05/02 02:05:27;;;;;;;12.05;6.95;;;10.70;99.90;;;;;;5088304;28;20125;-70
2023/05/02 02:07:54;;;;;;;13.50;7.32;;;10.70;99.90;;;;;;5087612;28;20349;-69
2023/05/02 02:10:21;;;;;;;17.25;8.75;;;10.80;99.90;;;;;;5079443;28;20043;-69
2023/05/02 02:13:03;;;;;;;15.02;6.53;;;10.70;99.90;;;;;;5083331;28;20044;-69
2023/05/02 02:15:33;;;;;;;11.88;6.85;;;10.70;99.90;;;;;;5082740;28;20044;-69
2023/05/02 02:18:00;;;;;;;10.73;6.75;;;10.70;99.90;;;;;;5110170;27;20169;-69
2023/05/02 02:20:28;;;;;;;11.13;7.20;;;10.70;99.90;;;;;;5084222;28;20079;-69
2023/05/02 02:22:56;;;;;;;13.07;7.22;;;10.70;99.90;;;;;;5086552;28;20121;-69
2023/05/02 02:25:22;;;;;;;18.98;9.05;;;10.70;99.90;;;;;;5086704;28;20039;-69
2023/05/02 02:27:48;;;;;;;13.60;8.40;;;10.70;99.90;;;;;;5087288;28;20428;-69
2023/05/02 02:30:15;;;;;;;23.52;7.80;;;10.70;99.90;;;;;;5078371;28;20040;-69
2023/05/02 02:32:41;;;;;;;24.38;8.07;;;10.50;99.90;;;;;;5082484;28;20051;-68
2023/05/02 02:35:07;;;;;;;29.25;10.23;;;10.40;99.90;;;;;;5085283;28;20056;-69
2023/05/02 02:38:06;;;;;;;16.48;8.10;;;10.30;99.90;;;;;;5078416;28;20097;-69
2023/05/02 02:40:41;;;;;;;13.52;6.47;;;10.20;99.90;;;;;;5077505;28;20054;-69
2023/05/02 02:43:44;;;;;;;21.05;6.05;;;10.00;99.90;;;;;;5087773;28;20039;-69
2023/05/02 02:46:25;;;;;;;11.90;7.13;;;9.90;99.90;;;;;;5109111;27;20694;-69
2023/05/02 02:49:29;;;;;;;23.92;8.02;;;9.70;99.90;;;;;;5081919;28;20044;-69
2023/05/02 02:52:15;;;;;;;28.10;8.27;;;9.70;99.90;;;;;;5086223;28;20044;-69
2023/05/02 02:54:56;;;;;;;22.33;8.48;;;9.60;99.90;;;;;;5087250;28;20052;-69
2023/05/02 02:57:36;;;;;;;39.33;9.50;;;9.50;99.90;;;;;;5084491;28;20531;-69
2023/05/02 03:00:12;;;;;;;23.17;9.90;;;9.50;99.90;;;;;;5075490;28;20066;-70
2023/05/02 03:02:40;;;;;;;20.58;8.52;;;9.50;99.90;;;;;;5084460;28;20111;-69
2023/05/02 03:05:08;;;;;;;48.60;10.40;;;9.40;99.90;;;;;;5080279;28;20680;-69
2023/05/02 03:07:33;;;;;;;31.15;10.30;;;9.40;99.90;;;;;;5074232;28;20058;-69
2023/05/02 03:10:02;;;;;;;30.92;9.07;;;9.30;99.90;;;;;;5069139;28;20036;-69
2023/05/02 03:12:28;;;;;;;22.15;8.80;;;9.30;99.90;;;;;;5077841;28;20036;-69
2023/05/02 03:15:04;;;;;;;30.25;8.25;;;9.30;99.90;;;;;;5080953;28;20056;-70
2023/05/02 03:17:30;;;;;;;34.33;9.02;;;9.30;99.90;;;;;;5077673;28;20048;-71
2023/05/02 03:19:56;;;;;;;23.05;10.00;;;9.20;99.90;;;;;;5071292;28;20447;-69
2023/05/02 03:22:21;;;;;;;24.80;10.48;;;9.20;99.90;;;;;;5077207;28;20073;-69
2023/05/02 03:24:47;;;;;;;38.70;11.05;;;9.20;99.90;;;;;;5079962;28;20043;-70
2023/05/02 03:27:13;;;;;;;28.42;9.90;;;9.10;99.90;;;;;;5074536;28;20048;-69
2023/05/02 03:29:38;;;;;;;40.80;12.07;;;9.10;99.90;;;;;;5077773;28;20043;-69
2023/05/02 03:32:04;;;;;;;32.95;9.60;;;9.00;99.90;;;;;;5085984;28;20086;-69
2023/05/02 03:34:30;;;;;;;25.98;10.25;;;9.00;99.90;;;;;;5085432;28;20044;-70
2023/05/02 03:36:55;;;;;;;40.20;9.70;;;8.90;99.90;;;;;;5079574;28;20509;-69
2023/05/02 03:39:21;;;;;;;32.00;8.93;;;8.90;99.90;;;;;;5071516;28;20045;-69
2023/05/02 03:41:47;;;;;;;27.42;10.27;;;8.90;99.90;;;;;;5080073;28;20082;-69
2023/05/02 03:44:12;;;;;;;24.35;8.25;;;8.80;99.90;;;;;;5078402;28;20067;-69
2023/05/02 03:46:38;;;;;;;27.67;9.10;;;8.80;99.90;;;;;;5075110;28;20119;-69
2023/05/02 03:49:05;;;;;;;40.25;10.40;;;8.70;99.90;;;;;;5081709;28;20055;-69
2023/05/02 03:51:32;;;;;;;35.17;8.80;;;8.70;99.90;;;;;;5084647;28;20051;-69
2023/05/02 03:54:00;;;;;;;24.95;9.05;;;8.70;99.90;;;;;;5081726;28;20509;-70
2023/05/02 03:56:26;;;;;;;26.20;9.52;;;8.60;99.90;;;;;;5073120;28;20052;-69
2023/05/02 03:58:51;;;;;;;22.55;10.32;;;8.60;99.90;;;;;;5077334;28;20433;-69
2023/05/02 04:01:17;;;;;;;28.02;9.07;;;8.60;99.90;;;;;;5085465;28;20040;-70
2023/05/02 04:03:43;;;;;;;31.70;9.00;;;8.60;99.90;;;;;;5087962;28;20072;-69
2023/05/02 04:06:08;;;;;;;38.28;10.00;;;8.50;99.90;;;;;;5073806;28;20577;-69
2023/05/02 04:08:35;;;;;;;25.65;9.10;;;8.50;99.90;;;;;;5089378;28;20457;-69
2023/05/02 04:11:01;;;;;;;37.00;9.98;;;8.40;99.90;;;;;;5082323;28;20073;-69
2023/05/02 04:13:28;;;;;;;29.17;8.77;;;8.40;99.90;;;;;;5085299;28;20048;-69
2023/05/02 04:15:53;;;;;;;29.05;8.40;;;8.40;99.90;;;;;;5086343;28;20082;-69
2023/05/02 04:18:19;;;;;;;17.33;7.93;;;8.40;99.90;;;;;;5095362;28;20075;-69
2023/05/02 04:20:45;;;;;;;31.67;8.63;;;8.30;99.90;;;;;;5086085;28;20778;-69
2023/05/02 04:23:10;;;;;;;17.83;7.10;;;8.30;99.90;;;;;;5087033;28;21032;-69
2023/05/02 04:25:36;;;;;;;16.58;7.97;;;8.30;99.90;;;;;;5076443;28;20052;-69
2023/05/02 04:28:02;;;;;;;23.60;6.88;;;8.30;99.90;;;;;;5087785;28;20413;-68
2023/05/02 04:33:03;;;;;;;15.00;6.00;;;8.20;99.90;;;;;;4853954;23;20193;-68
2023/05/02 04:35:30;;;;;;;22.65;6.95;;;8.20;99.90;;;;;;4981392;28;20056;-68
2023/05/02 04:37:56;;;;;;;17.25;6.72;;;8.20;99.90;;;;;;4980878;28;20049;-68
2023/05/02 04:40:22;;;;;;;13.77;5.80;;;8.20;99.90;;;;;;4987209;28;20097;-68
2023/05/02 04:42:48;;;;;;;14.63;5.38;;;8.20;99.90;;;;;;4978497;28;20065;-68
2023/05/02 04:45:14;;;;;;;14.68;5.78;;;8.20;99.90;;;;;;4974901;28;20128;-68
2023/05/02 04:47:40;;;;;;;13.60;5.43;;;8.20;99.90;;;;;;4987688;28;20097;-68
2023/05/02 04:50:06;;;;;;;18.58;6.03;;;8.20;99.90;;;;;;4986208;28;20564;-68
2023/05/02 04:52:32;;;;;;;20.17;7.70;;;8.20;99.90;;;;;;4991184;28;20069;-68
2023/05/02 04:54:58;;;;;;;18.17;5.75;;;8.20;99.90;;;;;;4985378;28;20487;-68
2023/05/02 04:57:25;;;;;;;16.60;5.70;;;8.20;99.90;;;;;;4983276;28;20161;-68
2023/05/02 04:59:51;;;;;;;19.42;6.07;;;8.20;99.90;;;;;;4975713;28;20034;-68
2023/05/02 05:02:17;;;;;;;12.55;5.55;;;8.20;99.90;;;;;;4992658;28;20097;-68
2023/05/02 05:04:44;;;;;;;14.98;5.97;;;8.20;99.90;;;;;;4987648;28;20191;-68
2023/05/02 05:07:10;;;;;;;10.60;5.22;;;8.20;99.90;;;;;;4983645;28;20050;-68
2023/05/02 05:09:36;;;;;;;15.40;5.03;;;8.20;99.90;;;;;;4975960;28;20380;-68
2023/05/02 05:12:02;;;;;;;18.20;5.68;;;8.20;99.90;;;;;;4983591;28;20046;-68
2023/05/02 05:14:27;;;;;;;18.00;5.38;;;8.20;99.90;;;;;;4985738;28;20514;-68
2023/05/02 05:16:54;;;;;;;8.30;4.88;;;8.20;99.90;;;;;;4985823;28;20053;-68
2023/05/02 05:19:21;;;;;;;10.13;4.72;;;8.20;99.90;;;;;;4988959;28;20752;-68
2023/05/02 05:21:46;;;;;;;8.77;4.80;;;8.20;99.90;;;;;;4988349;28;20184;-68
2023/05/02 05:24:12;;;;;;;10.43;4.88;;;8.20;99.90;;;;;;4988015;28;20137;-68
2023/05/02 05:26:38;;;;;;;9.43;4.05;;;8.20;99.90;;;;;;4988426;28;20046;-68
2023/05/02 05:29:04;;;;;;;12.65;5.97;;;8.20;99.90;;;;;;4982005;28;20038;-68
2023/05/02 05:31:30;;;;;;;21.33;5.07;;;8.20;99.90;;;;;;4984678;28;20046;-68
2023/05/02 05:33:56;;;;;;;13.65;4.90;;;8.20;99.90;;;;;;4987682;28;20108;-68
2023/05/02 05:36:21;;;;;;;12.82;5.88;;;8.20;99.90;;;;;;4988997;28;20426;-68
2023/05/02 05:38:47;;;;;;;13.90;4.97;;;8.20;99.90;;;;;;4988350;28;20853;-68
2023/05/02 05:41:13;;;;;;;7.95;4.75;;;8.20;99.90;;;;;;4987938;28;20034;-68
2023/05/02 05:43:38;;;;;;;7.25;4.65;;;8.30;99.90;;;;;;4988167;28;20054;-68
2023/05/02 05:46:04;;;;;;;7.07;4.68;;;8.30;99.90;;;;;;4987926;28;20105;-68
2023/05/02 05:48:30;;;;;;;13.75;4.82;;;8.30;99.90;;;;;;4976881;28;20503;-68
2023/05/02 05:50:56;;;;;;;11.70;4.78;;;8.30;99.90;;;;;;4987753;28;20078;-68
2023/05/02 05:53:21;;;;;;;15.30;5.25;;;8.30;99.90;;;;;;4988101;28;20042;-68
2023/05/02 05:55:47;;;;;;;16.00;5.90;;;8.30;99.90;;;;;;4987764;28;20042;-69
2023/05/02 05:58:13;;;;;;;14.77;6.05;;;8.30;99.90;;;;;;4973976;28;20054;-68
2023/05/02 06:00:39;;;;;;;11.27;4.43;;;8.30;99.90;;;;;;4993775;28;20483;-68
2023/05/02 06:03:05;;;;;;;14.15;6.60;;;8.40;99.90;;;;;;4982391;28;20046;-68
2023/05/02 06:05:32;;;;;;;10.70;6.25;;;8.40;99.90;;;;;;4982968;28;20034;-68
2023/05/02 06:07:58;;;;;;;16.08;6.32;;;8.40;99.90;;;;;;4986022;28;20121;-68
2023/05/02 06:10:24;;;;;;;21.20;7.22;;;8.40;99.90;;;;;;4987184;28;20057;-68
2023/05/02 06:12:50;;;;;;;18.85;6.70;;;8.40;99.90;;;;;;4986936;28;20046;-68
2023/05/02 06:15:16;;;;;;;24.42;6.38;;;8.40;99.90;;;;;;4986713;28;20048;-68
2023/05/02 06:17:42;;;;;;;11.20;5.90;;;8.40;99.90;;;;;;4987960;28;20046;-68
2023/05/02 06:20:08;;;;;;;18.30;7.00;;;8.40;99.90;;;;;;4984517;28;20034;-68
2023/05/02 06:22:35;;;;;;;21.80;7.85;;;8.50;99.90;;;;;;4982825;28;20038;-68
2023/05/02 06:25:00;;;;;;;18.45;6.90;;;8.50;99.90;;;;;;4985583;28;20074;-68
2023/05/02 06:27:26;;;;;;;15.32;7.13;;;8.40;99.90;;;;;;4984297;28;20074;-68
2023/05/02 06:29:52;;;;;;;22.40;6.70;;;8.50;99.90;;;;;;4986953;28;20054;-68
2023/05/02 06:32:18;;;;;;;20.33;7.70;;;8.50;99.90;;;;;;4984961;28;20034;-68
2023/05/02 06:34:45;;;;;;;19.58;7.00;;;8.50;99.90;;;;;;4987871;28;20057;-68
2023/05/02 06:37:10;;;;;;;20.40;6.95;;;8.50;99.90;;;;;;4980540;28;20035;-68
2023/05/02 06:39:36;;;;;;;22.33;7.15;;;8.50;99.90;;;;;;4983663;28;20046;-68
2023/05/02 06:42:02;;;;;;;22.13;8.43;;;8.50;99.90;;;;;;4987199;28;20117;-68
2023/05/02 06:44:28;;;;;;;15.63;6.88;;;8.50;99.90;;;;;;4982400;28;20057;-68
2023/05/02 06:46:56;;;;;;;26.45;6.95;;;8.60;99.90;;;;;;4980998;28;20475;-68
2023/05/02 06:49:22;;;;;;;;;;;8.60;99.90;;;;;;4984424;28;20521;-68
2023/05/02 06:51:48;;;;;;;17.77;7.95;;;8.60;99.90;;;;;;4986423;28;19925;-68
2023/05/02 06:54:14;;;;;;;25.90;7.28;;;8.60;99.90;;;;;;4982214;28;20139;-68
2023/05/02 06:56:40;;;;;;;13.65;5.93;;;8.60;99.90;;;;;;4984873;28;20046;-68
2023/05/02 06:59:06;;;;;;;22.52;6.72;;;8.60;99.90;;;;;;4983002;28;20403;-68
2023/05/02 07:01:32;;;;;;;20.90;7.32;;;8.70;99.90;;;;;;4986378;28;20041;-68
2023/05/02 07:03:57;;;;;;;12.95;6.45;;;8.80;99.90;;;;;;4981464;28;20054;-68
2023/05/02 07:06:25;;;;;;;13.30;5.80;;;8.80;99.90;;;;;;4981105;28;20535;-68
2023/05/02 07:08:50;;;;;;;18.00;7.38;;;8.90;99.90;;;;;;4982090;28;20483;-67
2023/05/02 07:11:16;;;;;;;21.08;6.55;;;8.90;99.90;;;;;;4981060;28;20042;-68
2023/05/02 07:13:43;;;;;;;19.45;6.15;;;9.00;99.90;;;;;;4981427;28;20084;-67
2023/05/02 07:16:08;;;;;;;21.38;7.68;;;9.00;99.90;;;;;;4983765;28;20035;-68
2023/05/02 07:18:34;;;;;;;17.33;6.18;;;9.10;99.90;;;;;;4983199;28;20043;-68
2023/05/02 07:21:00;;;;;;;18.25;7.55;;;9.20;99.90;;;;;;4981182;28;20120;-68
2023/05/02 07:23:27;;;;;;;16.52;7.28;;;9.20;99.90;;;;;;4982567;28;20105;-68
2023/05/02 07:25:53;;;;;;;17.65;7.18;;;9.30;99.90;;;;;;4980762;28;20201;-68
2023/05/02 07:28:19;;;;;;;11.90;7.20;;;9.30;99.90;;;;;;4985303;28;20716;-68
2023/05/02 07:30:49;;;;;;;13.93;7.10;;;9.30;99.90;;;;;;4983149;28;20046;-68
2023/05/02 07:33:14;;;;;;;15.35;6.95;;;9.30;99.90;;;;;;4974791;28;20074;-68
2023/05/02 07:35:40;;;;;;;30.50;8.43;;;9.30;99.90;;;;;;4985426;28;20418;-68
2023/05/02 07:38:06;;;;;;;13.13;7.00;;;9.30;99.90;;;;;;4988188;28;20051;-68
2023/05/02 07:40:31;;;;;;;18.25;7.25;;;9.30;99.90;;;;;;4987426;28;20038;-68
2023/05/02 07:42:59;;;;;;;14.88;6.80;;;9.50;99.90;;;;;;4979116;28;20073;-68
2023/05/02 07:45:25;;;;;;;20.85;7.35;;;9.60;99.90;;;;;;4987715;28;20042;-68
2023/05/02 07:47:51;;;;;;;15.13;7.10;;;9.80;98.60;;;;;;4988482;28;20133;-68
2023/05/02 07:50:16;;;;;;;19.63;6.30;;;9.90;98.40;;;;;;4984523;28;20042;-68
2023/05/02 07:52:42;;;;;;;19.20;6.95;;;10.00;97.40;;;;;;4988034;28;20479;-68
2023/05/02 07:55:08;;;;;;;11.50;6.47;;;10.00;94.20;;;;;;4984935;28;20081;-68
2023/05/02 07:57:34;;;;;;;12.88;6.75;;;10.00;93.20;;;;;;4986498;28;20042;-68
2023/05/02 08:00:00;;;;;;;15.77;6.30;;;10.10;92.30;;;;;;4978008;28;20053;-68
2023/05/02 08:02:26;;;;;;;11.90;6.38;;;10.20;93.00;;;;;;4987138;28;20049;-68
2023/05/02 08:04:52;;;;;;;10.02;5.07;;;10.30;92.70;;;;;;4979950;28;20050;-68
2023/05/02 08:07:18;;;;;;;10.75;5.45;;;10.50;92.20;;;;;;4976473;28;20491;-68
2023/05/02 08:09:44;;;;;;;12.23;5.50;;;10.60;91.70;;;;;;4983509;28;20122;-68
2023/05/02 08:12:09;;;;;;;21.88;6.40;;;10.80;89.70;;;;;;4984906;28;20133;-68
2023/05/02 08:14:35;;;;;;;9.27;5.22;;;10.90;90.80;;;;;;4983542;28;20109;-69
2023/05/02 08:17:01;;;;;;;12.05;6.38;;;11.10;90.50;;;;;;4982558;28;20122;-68
2023/05/02 08:19:27;;;;;;;18.17;6.40;;;11.10;89.90;;;;;;4987853;28;20034;-68
2023/05/02 08:21:54;;;;;;;14.30;6.95;;;11.20;87.40;;;;;;4988247;28;20505;-68
2023/05/02 08:24:20;;;;;;;14.30;6.68;;;11.20;85.70;;;;;;4987454;28;20048;-68
2023/05/02 08:26:46;;;;;;;13.98;7.60;;;11.20;87.90;;;;;;4986917;28;20403;-68
2023/05/02 08:29:11;;;;;;;10.77;6.05;;;11.30;89.10;;;;;;4988398;28;20046;-68
2023/05/02 08:31:39;;;;;;;14.15;6.85;;;11.30;88.50;;;;;;4987191;28;20058;-68
2023/05/02 08:34:05;;;;;;;21.38;6.35;;;11.40;87.10;;;;;;4991641;28;20688;-68
2023/05/02 08:36:31;;;;;;;13.95;5.95;;;11.40;88.20;;;;;;4991349;28;20057;-68
2023/05/02 08:38:56;;;;;;;12.60;7.05;;;11.40;88.00;;;;;;4988703;28;20092;-68
2023/05/02 08:41:22;;;;;;;12.23;6.57;;;11.40;86.80;;;;;;4991281;28;20039;-68
2023/05/02 08:43:48;;;;;;;14.00;7.43;;;11.20;85.10;;;;;;4991532;28;20042;-68
2023/05/02 08:46:16;;;;;;;9.48;6.03;;;11.20;87.10;;;;;;4991401;28;20048;-68
2023/05/02 08:48:43;;;;;;;14.07;6.17;;;11.20;85.60;;;;;;4990698;28;20507;-68
2023/05/02 08:51:12;;;;;;;18.38;6.40;;;11.20;86.00;;;;;;4990997;28;20043;-68
2023/05/02 08:53:39;;;;;;;20.30;6.95;;;11.10;87.60;;;;;;4991300;28;20097;-68
2023/05/02 08:56:10;;;;;;;22.42;7.72;;;11.10;86.00;;;;;;4991119;28;20043;-68
2023/05/02 08:58:38;;;;;;;15.75;6.00;;;11.20;86.70;;;;;;4991078;28;20064;-68
2023/05/02 09:01:14;;;;;;;14.27;6.55;;;11.10;87.80;;;;;;4990695;28;20407;-68
2023/05/02 09:03:41;;;;;;;14.90;6.50;;;11.20;86.90;;;;;;4991082;28;20042;-68
2023/05/02 09:06:16;;;;;;;17.95;7.07;;;11.10;87.40;;;;;;4990492;28;20054;-68
2023/05/02 09:08:44;;;;;;;21.52;7.30;;;11.00;86.60;;;;;;4990012;28;20470;-68
2023/05/02 09:11:11;;;;;;;17.93;7.00;;;11.20;86.60;;;;;;4985460;28;20049;-68
2023/05/02 09:13:38;;;;;;;18.10;6.05;;;11.30;86.80;;;;;;4978416;28;20145;-68
2023/05/02 09:16:09;;;;;;;13.80;6.78;;;11.30;85.00;;;;;;4990499;28;20038;-68
2023/05/02 09:18:36;;;;;;;12.00;6.40;;;11.30;86.30;;;;;;4990756;28;20574;-68
2023/05/02 09:21:07;;;;;;;7.57;4.65;;;11.30;87.70;;;;;;4990029;28;20499;-68
2023/05/02 09:23:35;;;;;;;15.63;5.53;;;11.30;87.50;;;;;;4988927;28;20046;-68
2023/05/02 09:26:01;;;;;;;10.38;4.25;;;11.40;86.00;;;;;;4983310;28;20892;-68
2023/05/02 09:28:41;;;;;;;8.05;4.40;;;11.40;86.50;;;;;;4981377;28;20030;-68
2023/05/02 09:31:13;;;;;;;4.45;3.40;;;11.50;82.80;;;;;;4990165;28;20170;-68
2023/05/02 09:33:40;;;;;;;7.78;3.95;;;11.50;83.50;;;;;;4987607;28;20101;-68
2023/05/02 09:36:07;;;;;;;7.90;3.75;;;11.60;82.90;;;;;;4990481;28;20062;-68
2023/05/02 09:38:33;;;;;;;10.40;3.83;;;11.60;84.20;;;;;;4990252;28;20050;-68
2023/05/02 09:40:59;;;;;;;8.63;3.70;;;11.60;82.50;;;;;;4989244;28;20739;-68
2023/05/02 09:43:29;;;;;;;6.68;3.83;;;11.50;82.80;;;;;;4985361;28;20038;-68
2023/05/02 09:45:57;;;;;;;6.30;3.45;;;11.50;80.70;;;;;;4987672;28;20058;-68
2023/05/02 09:48:22;;;;;;;6.55;2.92;;;11.50;81.00;;;;;;4984539;28;20165;-68
2023/05/02 09:50:48;;;;;;;10.13;3.78;;;11.50;79.40;;;;;;4981186;28;20035;-68
2023/05/02 09:53:14;;;;;;;4.63;2.83;;;11.50;77.80;;;;;;4981952;28;20046;-68
2023/05/02 09:55:39;;;;;;;8.55;4.18;;;11.60;79.10;;;;;;4987368;28;20034;-68
2023/05/02 09:58:05;;;;;;;4.88;3.13;;;11.70;78.10;;;;;;4987869;28;20049;-68
2023/05/02 10:00:38;;;;;;;5.47;3.60;;;11.80;79.10;;;;;;4989263;28;20049;-68
2023/05/02 10:03:08;;;;;;;7.55;2.60;;;12.00;79.60;;;;;;4988793;28;20040;-68
2023/05/02 10:05:38;;;;;;;9.35;4.20;;;12.10;78.20;;;;;;4989134;28;20682;-67
2023/05/02 10:08:05;;;;;;;3.83;3.08;;;12.20;77.30;;;;;;4988974;28;20502;-68
2023/05/02 10:10:34;;;;;;;7.03;4.18;;;12.20;73.70;;;;;;4986302;28;20576;-68
2023/05/02 10:13:02;;;;;;;8.07;4.10;;;12.20;74.20;;;;;;4984838;28;20126;-67
2023/05/02 10:15:33;;;;;;;7.93;3.47;;;12.40;76.40;;;;;;4989631;28;20042;-68
2023/05/02 10:18:02;;;;;;;9.80;3.85;;;12.70;75.60;;;;;;4987798;28;20046;-68
2023/05/02 10:20:36;;;;;;;5.90;3.22;;;13.10;75.80;;;;;;4986135;28;20034;-68
2023/05/02 10:23:03;;;;;;;5.80;3.58;;;13.20;73.50;;;;;;4987064;28;20079;-68
2023/05/02 10:25:29;;;;;;;12.85;3.10;;;13.40;76.30;;;;;;4986816;28;20084;-68
2023/05/02 10:27:58;;;;;;;10.98;3.92;;;13.40;74.60;;;;;;4988824;28;20077;-68
2023/05/02 10:30:25;;;;;;;11.95;3.22;;;13.40;74.00;;;;;;4986541;28;20046;-68
2023/05/02 10:32:55;;;;;;;6.50;2.92;;;13.40;73.00;;;;;;4989535;28;20046;-68
2023/05/02 10:35:23;;;;;;;9.85;4.18;;;13.20;71.50;;;;;;4989504;28;20105;-68
2023/05/02 10:37:49;;;;;;;6.90;2.67;;;13.20;72.70;;;;;;4989839;28;20074;-68
2023/05/02 10:40:15;;;;;;;5.68;3.25;;;13.20;72.80;;;;;;4988994;28;20058;-68
2023/05/02 10:42:44;;;;;;;7.53;3.30;;;13.20;73.10;;;;;;4987392;28;20051;-68
2023/05/02 10:45:33;;;;;;;10.38;3.25;;;13.20;72.80;;;;;;4989017;28;20093;-68
2023/05/02 10:48:28;;;;;;;11.52;4.07;;;13.10;73.20;;;;;;4989464;28;20511;-68
2023/05/02 10:51:02;;;;;;;7.28;4.07;;;13.10;73.10;;;;;;4976923;28;20073;-68
2023/05/02 10:53:38;;;;;;;7.05;3.17;;;12.90;72.70;;;;;;4989334;28;20042;-68
2023/05/02 10:56:21;;;;;;;4.80;3.20;;;12.90;72.50;;;;;;4984718;28;20046;-68
2023/05/02 10:58:50;;;;;;;5.88;3.33;;;12.90;74.80;;;;;;4984894;28;20054;-68
2023/05/02 11:01:29;;;;;;;6.97;3.40;;;12.90;74.70;;;;;;4989164;28;20043;-68
2023/05/02 11:03:59;;;;;;;4.68;2.95;;;13.00;74.20;;;;;;4985801;28;20885;-69
2023/05/02 11:06:27;;;;;;;13.07;3.58;;;13.10;75.40;;;;;;4988843;28;20050;-68
2023/05/02 11:09:14;;;;;;;5.93;2.88;;;13.30;75.90;;;;;;4987011;28;20963;-68
2023/05/02 11:11:41;;;;;;;5.13;2.85;;;13.50;75.80;;;;;;4978476;28;20058;-68
2023/05/02 11:14:08;;;;;;;10.85;3.72;;;13.50;75.90;;;;;;4989525;28;20097;-68
2023/05/02 11:17:08;;;;;;;11.35;4.03;;;13.60;74.00;;;;;;4988802;28;20129;-68
2023/05/02 11:19:54;;;;;;;9.40;3.45;;;13.50;73.60;;;;;;4989483;28;20046;-68
2023/05/02 11:22:20;;;;;;;7.72;3.65;;;13.40;74.30;;;;;;4974277;28;20050;-68
2023/05/02 11:24:47;;;;;;;10.40;3.08;;;13.30;74.80;;;;;;4975564;28;20142;-68
2023/05/02 11:27:32;;;;;;;6.82;3.70;;;13.20;74.30;;;;;;4986715;28;20569;-68
2023/05/02 11:30:03;;;;;;;12.00;3.30;;;13.10;75.10;;;;;;4983291;28;20059;-68
2023/05/02 11:32:44;;;;;;;5.90;2.92;;;13.00;76.00;;;;;;4986182;28;20086;-68
2023/05/02 11:35:31;;;;;;;7.70;3.35;;;13.00;75.30;;;;;;4976216;28;20086;-68
2023/05/02 11:38:07;;;;;;;3.55;2.50;;;12.90;74.60;;;;;;4986368;28;20454;-68
2023/05/02 11:40:34;;;;;;;3.38;2.88;;;13.00;75.80;;;;;;4987477;28;20798;-68
2023/05/02 11:43:10;;;;;;;5.68;2.90;;;13.10;76.80;;;;;;4988381;28;20608;-68
2023/05/02 11:45:38;;;;;;;9.90;3.33;;;13.10;75.90;;;;;;4984358;28;20055;-68
2023/05/02 11:48:05;;;;;;;12.95;3.10;;;13.20;76.40;;;;;;4985539;28;20058;-68
2023/05/02 11:50:32;;;;;;;7.18;4.03;;;13.20;76.00;;;;;;4980757;28;20571;-67
2023/05/02 11:52:58;;;;;;;9.40;3.85;;;13.20;74.80;;;;;;4985123;28;20093;-67
2023/05/02 11:55:23;;;;;;;11.35;4.07;;;13.10;73.90;;;;;;4980612;28;20066;-68
2023/05/02 11:57:50;;;;;;;8.05;3.17;;;13.10;75.40;;;;;;4986487;28;20047;-68
2023/05/02 12:00:16;;;;;;;8.57;3.05;;;13.30;74.80;;;;;;4978671;28;20054;-68
2023/05/02 12:02:43;;;;;;;10.45;4.43;;;13.30;74.00;;;;;;4977687;28;20043;-68
2023/05/02 12:05:13;;;;;;;11.48;4.05;;;13.30;73.00;;;;;;4986130;28;21083;-68
2023/05/02 12:07:41;;;;;;;6.97;3.65;;;13.20;74.10;;;;;;4989386;28;20041;-68
2023/05/02 12:10:08;;;;;;;6.15;3.13;;;13.20;75.70;;;;;;4986090;28;20058;-68
2023/05/02 12:12:35;;;;;;;12.38;3.65;;;13.10;75.20;;;;;;4989732;28;20050;-68
2023/05/02 12:15:08;;;;;;;8.35;3.28;;;13.10;75.80;;;;;;4990427;28;20050;-68
2023/05/02 12:17:38;;;;;;;8.45;3.80;;;13.10;77.30;;;;;;4987688;28;20109;-68
2023/05/02 12:20:07;;;;;;;6.07;3.35;;;13.00;78.60;;;;;;4990083;28;20078;-68
2023/05/02 12:22:33;;;;;;;11.45;3.25;;;13.00;79.90;;;;;;4990722;28;20443;-68
2023/05/02 12:24:59;;;;;;;9.25;4.15;;;13.10;81.40;;;;;;4987637;28;20062;-68
2023/05/02 12:27:26;;;;;;;10.38;3.92;;;13.10;81.10;;;;;;4989186;28;20038;-67
2023/05/02 12:29:52;;;;;;;8.35;3.47;;;13.10;80.90;;;;;;4989708;28;20564;-68
2023/05/02 12:32:32;;;;;;;8.43;3.40;;;13.10;80.40;;;;;;4987822;28;20121;-68
2023/05/02 12:34:59;;;;;;;11.75;3.78;;;13.20;78.60;;;;;;4990615;28;20054;-67
2023/05/02 12:37:26;;;;;;;10.57;4.00;;;13.20;79.40;;;;;;4989019;28;20035;-68
2023/05/02 12:39:54;;;;;;;5.85;3.55;;;13.30;78.40;;;;;;4982952;28;20046;-68
2023/05/02 12:42:21;;;;;;;8.13;3.55;;;13.40;80.00;;;;;;4989409;28;20061;-68
2023/05/02 12:44:51;;;;;;;4.50;3.07;;;13.50;80.40;;;;;;4986197;28;20050;-68
2023/05/02 12:47:18;;;;;;;14.60;4.00;;;13.60;78.70;;;;;;4988934;28;20109;-68
2023/05/02 12:49:55;;;;;;;8.97;2.90;;;13.60;77.40;;;;;;4990947;28;20050;-68
2023/05/02 12:52:45;;;;;;;17.90;3.92;;;13.60;76.30;;;;;;4991030;28;20450;-68
2023/05/02 12:55:16;;;;;;;7.15;3.47;;;13.50;76.50;;;;;;4979868;28;20065;-68